Time;durP1;ratioP1;P1;durP2;ratioP2;P2;SDS_P1;SDS_P2;PMS_P1;PMS_P2;Temp;Humidity;BMP_temperature;BMP_pressure;BME280_temperature;BME280_humidity;BME280_pressure;Samples;Min_cycle;Max_cycle;Signal;HPM_P1;HPM_P2
2022/03/11 00:02:08;;;;;;;1.73;1.63;;;;;;;10.34;33.63;101295.81;5140440;28;20009;-79
2022/03/11 00:04:39;;;;;;;3.60;1.42;;;;;;;10.38;34.33;101293.16;5158442;28;20044;-79
2022/03/11 00:07:10;;;;;;;0.90;0.90;;;;;;;10.29;33.98;101292.41;5147610;28;20036;-79
2022/03/11 00:09:41;;;;;;;3.70;2.72;;;;;;;10.32;34.45;101295.84;5155139;28;20030;-80
2022/03/11 00:12:11;;;;;;;2.15;1.95;;;;;;;10.24;34.20;101292.50;5157279;28;20038;-79
2022/03/11 00:14:42;;;;;;;1.42;1.38;;;;;;;10.30;34.37;101287.13;5156019;28;20077;-79
2022/03/11 00:17:12;;;;;;;1.33;1.23;;;;;;;10.28;34.41;101288.06;5174542;28;20113;-79
2022/03/11 00:19:43;;;;;;;2.35;1.30;;;;;;;10.24;34.68;101290.75;5157356;28;20129;-79
2022/03/11 00:22:14;;;;;;;1.83;1.70;;;;;;;10.35;34.17;101285.31;5155807;28;20133;-79
2022/03/11 00:24:46;;;;;;;3.20;1.15;;;;;;;10.38;34.60;101293.16;5151712;28;20092;-79
2022/03/11 00:27:19;;;;;;;0.40;0.40;;;;;;;10.14;34.42;101294.41;5143618;28;20030;-79
2022/03/11 00:29:50;;;;;;;1.73;1.63;;;;;;;10.11;33.55;101296.22;5171213;28;20036;-79
2022/03/11 00:32:20;;;;;;;0.88;0.88;;;;;;;9.92;34.63;101291.25;5155954;28;20033;-79
2022/03/11 00:34:51;;;;;;;4.35;1.77;;;;;;;9.86;34.37;101299.22;5153751;28;20034;-79
2022/03/11 00:37:21;;;;;;;1.92;1.00;;;;;;;9.88;34.40;101289.53;5142741;28;20204;-79
2022/03/11 00:39:52;;;;;;;2.35;1.65;;;;;;;9.90;34.32;101295.63;5147986;28;20281;-79
2022/03/11 00:42:24;;;;;;;0.90;0.63;;;;;;;9.92;34.21;101289.47;5171851;28;20136;-79
2022/03/11 00:44:54;;;;;;;1.23;1.13;;;;;;;10.05;34.00;101292.78;5149032;28;20022;-79
2022/03/11 00:47:28;;;;;;;1.52;1.42;;;;;;;9.87;34.29;101293.09;5173573;28;20033;-78
2022/03/11 00:49:59;;;;;;;0.45;0.45;;;;;;;10.10;34.82;101289.22;5158276;28;20126;-78
2022/03/11 00:52:42;;;;;;;;;;;;;;;;;;;;;
2022/03/11 00:56:35;;;;;;;1.48;1.30;;;;;;;9.77;34.43;101297.56;5153730;28;20091;-78
2022/03/11 01:00:03;;;;;;;0.68;0.68;;;;;;;9.81;34.45;101291.41;5128682;28;20089;-78
2022/03/11 01:02:42;;;;;;;2.15;2.00;;;;;;;9.86;34.57;101296.59;5097305;28;20097;-78
2022/03/11 01:05:19;;;;;;;3.30;1.52;;;;;;;9.62;34.43;101288.19;5136672;28;20452;-78
2022/03/11 01:07:50;;;;;;;;;;;;;;;9.50;35.10;101283.13;5156382;28;20033;-78
2022/03/11 01:10:21;;;;;;;1.08;1.05;;;;;;;9.48;34.98;101285.75;5173394;28;19917;-77
2022/03/11 01:12:52;;;;;;;1.45;1.35;;;;;;;9.70;34.72;101275.84;5135933;28;20125;-78
2022/03/11 01:15:25;;;;;;;1.73;1.63;;;;;;;9.47;34.59;101277.91;5175053;28;20053;-78
2022/03/11 01:17:56;;;;;;;1.13;1.08;;;;;;;9.64;34.75;101270.69;5187431;28;20030;-78
2022/03/11 01:20:29;;;;;;;1.05;1.05;;;;;;;9.67;34.57;101265.41;5151492;28;20712;-77
2022/03/11 01:23:00;;;;;;;0.77;0.77;;;;;;;9.57;34.38;101266.41;5152286;28;20034;-78
2022/03/11 01:25:30;;;;;;;0.50;0.50;;;;;;;9.75;35.00;101265.31;5154172;28;20412;-78
2022/03/11 01:28:01;;;;;;;1.85;1.30;;;;;;;9.39;34.86;101263.16;5170893;28;20104;-78
2022/03/11 01:30:37;;;;;;;0.77;0.77;;;;;;;9.55;34.63;101260.31;5159373;28;20188;-78
2022/03/11 01:33:08;;;;;;;1.35;1.25;;;;;;;9.57;35.20;101267.31;5173284;28;20567;-78
2022/03/11 01:35:38;;;;;;;1.88;1.55;;;;;;;9.61;34.86;101261.13;5152003;28;20046;-78
2022/03/11 01:38:09;;;;;;;2.05;1.20;;;;;;;9.73;34.74;101253.97;5168156;28;20786;-78
2022/03/11 01:40:39;;;;;;;0.95;0.95;;;;;;;9.63;34.22;101261.09;5149938;28;20762;-78
2022/03/11 01:43:15;;;;;;;0.43;0.43;;;;;;;9.67;35.18;101248.84;5173544;28;20045;-80
2022/03/11 01:45:45;;;;;;;0.70;0.70;;;;;;;9.66;35.02;101253.19;5169752;28;20049;-78
2022/03/11 01:48:16;;;;;;;2.70;2.42;;;;;;;9.39;34.67;101249.22;5174415;28;20026;-78
2022/03/11 01:50:58;;;;;;;0.88;0.88;;;;;;;8.96;35.58;101246.25;5175185;28;20117;-78
2022/03/11 01:53:53;;;;;;;3.92;1.77;;;;;;;9.22;35.32;101244.19;5161394;28;20030;-77
2022/03/11 01:57:04;;;;;;;0.70;0.70;;;;;;;9.46;35.13;101245.63;5173041;28;20108;-78
2022/03/11 01:59:36;;;;;;;1.92;1.67;;;;;;;9.31;35.22;101243.22;5172253;28;20037;-78
2022/03/11 02:02:38;;;;;;;1.25;1.15;;;;;;;9.06;35.70;101233.91;5155584;28;20579;-78
2022/03/11 02:05:08;;;;;;;1.58;1.48;;;;;;;9.48;35.06;101227.25;5145341;28;20066;-78
2022/03/11 02:07:52;;;;;;;11.82;1.40;;;;;;;9.36;34.96;101228.28;5150262;28;20057;-78
2022/03/11 02:10:27;;;;;;;0.77;0.77;;;;;;;9.44;35.17;101227.31;5155155;28;20112;-78
2022/03/11 02:13:43;;;;;;;1.30;1.20;;;;;;;9.29;35.40;101222.28;5172481;28;20048;-77
2022/03/11 02:17:27;;;;;;;0.57;0.57;;;;;;;9.31;35.52;101220.50;5116141;28;20045;-78
2022/03/11 02:21:29;;;;;;;0.95;0.95;;;;;;;9.13;35.48;101217.25;5129885;28;20612;-78
2022/03/11 02:24:35;;;;;;;3.10;2.83;;;;;;;8.97;35.64;101210.47;5137889;28;20041;-77
2022/03/11 02:27:49;;;;;;;;;;;;;;;;;;;;;
2022/03/11 02:34:32;;;;;;;1.52;1.13;;;;;;;9.12;35.65;101210.28;5130611;28;20042;-78
2022/03/11 02:37:03;;;;;;;2.20;2.10;;;;;;;9.17;36.18;101201.50;5135432;28;20037;-78
2022/03/11 02:39:34;;;;;;;0.82;0.82;;;;;;;9.21;36.06;101208.44;5131552;28;20042;-78
2022/03/11 02:42:06;;;;;;;3.35;2.22;;;;;;;9.16;35.98;101216.34;5137510;28;20042;-78
2022/03/11 02:44:38;;;;;;;1.35;1.30;;;;;;;9.10;36.14;101208.56;5138816;28;20112;-78
2022/03/11 02:47:12;;;;;;;0.93;0.93;;;;;;;8.73;37.00;101212.50;5124854;28;20033;-78
2022/03/11 02:49:47;;;;;;;;;;;;;;;8.84;36.64;101208.91;5134232;28;20062;-78
2022/03/11 02:52:26;;;;;;;0.70;0.70;;;;;;;8.84;36.80;101208.91;5149199;28;20653;-78
2022/03/11 02:54:56;;;;;;;0.77;0.77;;;;;;;8.89;36.67;101196.59;5146818;28;20757;-78
2022/03/11 02:57:30;;;;;;;0.75;0.75;;;;;;;8.91;37.04;101197.47;5152020;28;20106;-78
2022/03/11 03:00:29;;;;;;;;;;;;;;;8.84;37.15;101198.44;5137979;28;20667;-78
2022/03/11 03:02:59;;;;;;;1.45;1.13;;;;;;;8.70;37.22;101207.31;5136321;28;19965;-78
2022/03/11 03:05:30;;;;;;;6.97;1.05;;;;;;;8.81;37.24;101199.34;5138541;28;20046;-78
2022/03/11 03:08:01;;;;;;;0.38;0.38;;;;;;;8.83;37.25;101200.19;5149180;28;20567;-78
2022/03/11 03:10:31;;;;;;;1.83;1.73;;;;;;;8.82;37.59;101196.69;5127411;28;20048;-79
2022/03/11 03:13:03;;;;;;;0.75;0.75;;;;;;;8.85;37.40;101190.56;5137856;28;20028;-78
2022/03/11 03:15:34;;;;;;;0.43;0.43;;;;;;;8.95;37.60;101193.94;5136668;28;20050;-78
2022/03/11 03:18:04;;;;;;;1.35;1.25;;;;;;;8.89;37.42;101194.00;5137940;28;20122;-78
2022/03/11 03:20:36;;;;;;;2.72;2.30;;;;;;;8.78;37.59;101197.63;5120911;28;20042;-78
2022/03/11 03:23:07;;;;;;;2.78;2.63;;;;;;;8.84;37.57;101199.31;5120998;28;20092;-78
2022/03/11 03:25:38;;;;;;;1.55;1.33;;;;;;;8.77;37.54;101193.28;5136506;28;20126;-78
2022/03/11 03:28:12;;;;;;;2.63;1.45;;;;;;;8.85;37.60;101189.69;5122142;28;20109;-78
2022/03/11 03:30:42;;;;;;;1.50;1.40;;;;;;;8.74;37.69;101185.47;5119337;28;20050;-78
2022/03/11 03:33:13;;;;;;;0.82;0.82;;;;;;;8.58;38.17;101186.53;5119310;28;20547;-78
2022/03/11 03:35:43;;;;;;;0.65;0.65;;;;;;;8.66;38.07;101179.44;5137680;28;20526;-78
2022/03/11 03:38:14;;;;;;;0.47;0.47;;;;;;;8.25;38.79;101179.00;5122124;28;20068;-78
2022/03/11 03:40:44;;;;;;;1.10;1.10;;;;;;;8.43;38.98;101182.31;5155281;28;20048;-78
2022/03/11 03:43:15;;;;;;;1.85;1.60;;;;;;;8.66;38.12;101174.22;5141805;28;20041;-78
2022/03/11 03:45:48;;;;;;;1.08;1.05;;;;;;;8.52;38.55;101181.38;5122348;28;20088;-78
2022/03/11 03:48:21;;;;;;;2.90;1.65;;;;;;;8.21;39.08;101176.44;5143405;28;20117;-78
2022/03/11 03:50:54;;;;;;;0.75;0.75;;;;;;;8.43;39.17;101177.94;5140120;28;20075;-78
2022/03/11 03:53:25;;;;;;;1.50;1.23;;;;;;;7.88;40.52;101175.00;5119441;28;20030;-78
2022/03/11 03:55:55;;;;;;;0.60;0.60;;;;;;;8.21;39.43;101177.28;5125851;28;20042;-78
2022/03/11 03:58:26;;;;;;;2.92;2.60;;;;;;;8.30;39.02;101184.19;5119790;28;20065;-78
2022/03/11 04:00:56;;;;;;;1.38;1.38;;;;;;;8.42;39.27;101189.28;5127356;28;20049;-80
2022/03/11 04:03:27;;;;;;;0.63;0.63;;;;;;;8.52;38.84;101176.97;5136067;28;20041;-78
2022/03/11 04:05:57;;;;;;;1.52;1.42;;;;;;;8.17;39.45;101186.91;5153191;28;20044;-78
2022/03/11 04:08:28;;;;;;;1.90;1.80;;;;;;;8.25;39.69;101180.72;5153071;28;20030;-78
2022/03/11 04:11:01;;;;;;;2.17;1.98;;;;;;;8.17;39.72;101176.44;5140134;28;20123;-78
2022/03/11 04:13:32;;;;;;;1.48;1.40;;;;;;;8.11;39.83;101171.28;5136521;28;20750;-78
2022/03/11 04:16:03;;;;;;;2.58;2.38;;;;;;;8.32;39.37;101169.31;5128613;28;20042;-78
2022/03/11 04:18:34;;;;;;;1.50;1.40;;;;;;;8.36;39.81;101173.66;5135605;28;20088;-78
2022/03/11 04:21:06;;;;;;;1.05;1.05;;;;;;;7.97;40.34;101171.41;5140114;28;20419;-78
2022/03/11 04:24:23;;;;;;;;;;;;;;;;;;;;;
2022/03/11 04:27:45;;;;;;;1.92;1.65;;;;;;;8.01;40.59;101164.41;5166606;28;19918;-78
2022/03/11 04:30:16;;;;;;;3.25;2.53;;;;;;;8.08;40.06;101165.22;5130970;28;20046;-78
2022/03/11 04:32:46;;;;;;;1.17;1.17;;;;;;;8.08;40.33;101171.31;5138286;28;20584;-78
2022/03/11 04:35:17;;;;;;;1.45;1.35;;;;;;;8.18;40.08;101167.72;5151060;28;20042;-78
2022/03/11 04:37:48;;;;;;;0.82;0.82;;;;;;;8.20;40.20;101162.47;5144407;28;20018;-78
2022/03/11 04:40:18;;;;;;;2.78;2.47;;;;;;;7.78;41.04;101168.09;5123168;28;20048;-78
2022/03/11 04:42:49;;;;;;;1.33;1.33;;;;;;;7.97;40.52;101158.34;5153873;28;20026;-80
2022/03/11 04:45:19;;;;;;;0.75;0.75;;;;;;;8.11;40.44;101170.41;5111564;28;20125;-78
2022/03/11 04:47:52;;;;;;;1.50;1.40;;;;;;;7.81;41.01;101170.66;5121784;28;20198;-78
2022/03/11 04:50:43;;;;;;;2.00;1.90;;;;;;;7.81;40.85;101177.66;5129464;28;20042;-78
2022/03/11 04:53:13;;;;;;;0.75;0.75;;;;;;;7.77;40.98;101165.50;5136760;28;20034;-79
2022/03/11 04:55:47;;;;;;;0.75;0.75;;;;;;;7.99;40.54;101172.28;5151897;28;20378;-79
2022/03/11 04:58:17;;;;;;;2.45;2.35;;;;;;;7.76;41.17;101174.22;5134464;28;20076;-79
2022/03/11 05:00:48;;;;;;;0.63;0.63;;;;;;;7.78;41.12;101168.09;5167440;28;20070;-78
2022/03/11 05:03:18;;;;;;;2.20;1.45;;;;;;;7.95;40.91;101165.31;5154858;28;20647;-78
2022/03/11 05:05:49;;;;;;;3.33;3.03;;;;;;;7.56;41.92;101170.88;5135014;28;20457;-78
2022/03/11 05:08:23;;;;;;;1.00;1.00;;;;;;;7.89;40.93;101160.16;5138616;28;20027;-79
2022/03/11 05:10:53;;;;;;;0.52;0.52;;;;;;;7.96;40.40;101166.22;5152362;28;20101;-78
2022/03/11 05:13:24;;;;;;;1.55;1.45;;;;;;;7.84;40.66;101162.81;5134259;28;20525;-79
2022/03/11 05:15:57;;;;;;;0.80;0.77;;;;;;;7.64;41.54;101162.13;5147263;28;20574;-78
2022/03/11 05:18:28;;;;;;;1.20;1.15;;;;;;;7.31;42.07;101151.91;5168511;28;20041;-78
2022/03/11 05:20:59;;;;;;;2.03;1.92;;;;;;;7.60;41.46;101168.25;5137984;28;20050;-78
2022/03/11 05:23:29;;;;;;;1.38;1.27;;;;;;;7.51;41.90;101166.56;5138768;28;20029;-78
2022/03/11 05:26:02;;;;;;;2.63;1.95;;;;;;;7.77;40.81;101153.31;5133863;28;20452;-78
2022/03/11 05:28:33;;;;;;;0.60;0.60;;;;;;;7.85;41.37;101153.25;5129736;28;20857;-78
2022/03/11 05:31:04;;;;;;;1.85;1.75;;;;;;;7.65;41.55;101158.59;5139753;28;20038;-78
2022/03/11 05:33:34;;;;;;;1.05;1.05;;;;;;;7.67;41.34;101149.03;5123553;28;20045;-78
2022/03/11 05:36:08;;;;;;;6.70;1.37;;;;;;;7.80;41.60;101148.06;5129691;28;20037;-81
2022/03/11 05:38:38;;;;;;;1.05;1.05;;;;;;;7.42;42.26;101149.22;5124118;28;20034;-78
2022/03/11 05:41:09;;;;;;;0.75;0.75;;;;;;;7.66;41.60;101144.69;5123841;28;20784;-78
2022/03/11 05:43:40;;;;;;;1.30;1.20;;;;;;;7.46;41.88;101145.72;5131777;28;20037;-79
2022/03/11 05:46:10;;;;;;;1.55;1.40;;;;;;;7.33;42.29;101151.88;5097861;28;20046;-79
2022/03/11 05:48:41;;;;;;;1.00;1.00;;;;;;;7.24;42.23;101147.59;5121367;28;20030;-78
2022/03/11 05:51:11;;;;;;;0.73;0.73;;;;;;;7.35;42.21;101151.03;5119849;28;20042;-80
2022/03/11 05:53:42;;;;;;;2.03;1.83;;;;;;;7.48;42.18;101146.53;5149112;28;20024;-79
2022/03/11 05:56:12;;;;;;;1.38;1.23;;;;;;;7.08;42.44;101141.59;5111082;28;20043;-79
2022/03/11 05:58:43;;;;;;;0.68;0.68;;;;;;;7.29;42.63;101142.34;5116596;28;20186;-79
2022/03/11 06:01:13;;;;;;;0.90;0.90;;;;;;;7.51;42.08;101149.16;5133388;28;20113;-79
2022/03/11 06:03:46;;;;;;;0.77;0.77;;;;;;;7.38;42.38;101135.31;5121424;28;20468;-79
2022/03/11 06:06:16;;;;;;;1.05;1.05;;;;;;;7.49;42.04;101140.44;5123579;28;20485;-79
2022/03/11 06:08:47;;;;;;;1.85;1.75;;;;;;;7.18;42.63;101138.06;5121248;28;20022;-79
2022/03/11 06:11:17;;;;;;;1.40;1.38;;;;;;;7.35;42.06;101135.34;5110376;28;20129;-79
2022/03/11 06:13:49;;;;;;;2.45;2.25;;;;;;;7.44;42.31;101144.84;5136834;28;20405;-80
2022/03/11 06:16:20;;;;;;;1.05;1.05;;;;;;;7.46;41.86;101153.56;5121356;28;20050;-79
2022/03/11 06:18:51;;;;;;;1.30;0.85;;;;;;;7.34;42.71;101148.41;5125297;28;20061;-79
2022/03/11 06:21:22;;;;;;;0.77;0.77;;;;;;;7.39;42.18;101146.66;5137547;28;20038;-79
2022/03/11 06:23:52;;;;;;;3.50;1.98;;;;;;;7.40;41.98;101136.19;5103746;28;20029;-79
2022/03/11 06:26:26;;;;;;;2.40;2.30;;;;;;;7.41;42.42;101147.47;5116157;28;20066;-80
2022/03/11 06:28:56;;;;;;;1.08;1.05;;;;;;;7.30;42.23;101142.34;5103571;28;20041;-80
2022/03/11 06:31:27;;;;;;;1.52;1.42;;;;;;;7.52;42.06;101140.44;5136923;28;20505;-80
2022/03/11 06:33:59;;;;;;;2.30;2.20;;;;;;;7.46;42.18;101150.94;5123573;28;20048;-79
2022/03/11 06:36:30;;;;;;;0.77;0.77;;;;;;;7.35;42.34;101143.19;5179724;28;20058;-79
2022/03/11 06:39:03;;;;;;;2.85;2.35;;;;;;;6.87;43.60;101155.63;5118631;28;20018;-80
2022/03/11 06:41:33;;;;;;;2.65;2.45;;;;;;;7.15;43.38;101152.88;5132607;28;20042;-81
2022/03/11 06:44:04;;;;;;;1.23;1.13;;;;;;;7.38;42.81;101157.97;5139687;28;20289;-80
2022/03/11 06:46:37;;;;;;;0.73;0.73;;;;;;;7.16;43.42;101165.91;5133013;28;20621;-79
2022/03/11 06:49:11;;;;;;;3.35;2.05;;;;;;;7.23;43.52;101161.53;5101731;28;20034;-79
2022/03/11 06:51:41;;;;;;;;;;;;;;;7.01;43.62;101171.22;5127938;28;20049;-79
2022/03/11 06:54:15;;;;;;;1.20;1.20;;;;;;;7.09;43.20;101162.50;5144528;28;19914;-79
2022/03/11 06:56:46;;;;;;;0.77;0.77;;;;;;;7.29;43.18;101164.09;5144227;28;20084;-79
2022/03/11 06:59:16;;;;;;;1.88;1.73;;;;;;;7.43;42.63;101155.31;5136155;28;20697;-79
2022/03/11 07:01:47;;;;;;;2.22;2.13;;;;;;;6.87;44.57;101171.28;5121245;28;20035;-79
2022/03/11 07:04:18;;;;;;;1.10;1.10;;;;;;;6.89;44.84;101151.28;5151653;28;20489;-79
2022/03/11 07:06:48;;;;;;;2.28;1.90;;;;;;;7.13;43.79;101150.28;5093131;28;20605;-81
2022/03/11 07:09:19;;;;;;;1.25;1.20;;;;;;;7.30;43.41;101151.94;5116153;28;20046;-77
2022/03/11 07:11:51;;;;;;;2.25;2.05;;;;;;;7.34;43.35;101151.00;5145069;28;20062;-80
2022/03/11 07:14:24;;;;;;;2.97;2.78;;;;;;;7.19;43.37;101152.00;5182639;28;20046;-78
2022/03/11 07:16:56;;;;;;;1.20;1.13;;;;;;;7.17;43.96;101149.38;5157467;28;20038;-78
2022/03/11 07:19:29;;;;;;;2.03;1.65;;;;;;;6.95;44.33;101159.06;5142234;28;20030;-78
2022/03/11 07:22:03;;;;;;;4.38;2.22;;;;;;;6.88;44.97;101157.34;5138194;28;20546;-78
2022/03/11 07:24:34;;;;;;;12.07;3.42;;;;;;;6.96;44.28;101157.34;5099930;28;20038;-78
2022/03/11 07:27:06;;;;;;;0.70;0.70;;;;;;;7.02;44.32;101162.50;5153026;28;20120;-78
2022/03/11 07:29:41;;;;;;;3.28;3.00;;;;;;;7.21;44.24;101153.72;5120315;28;20038;-79
2022/03/11 07:32:12;;;;;;;0.65;0.65;;;;;;;7.23;44.08;101157.16;5116121;28;20042;-80
2022/03/11 07:34:46;;;;;;;1.40;1.30;;;;;;;6.85;45.28;101146.97;5145955;28;20044;-78
2022/03/11 07:37:21;;;;;;;0.95;0.85;;;;;;;6.95;45.14;101151.22;5139569;28;20061;-78
2022/03/11 07:39:54;;;;;;;1.17;1.08;;;;;;;7.03;44.20;101166.88;5154673;28;20122;-78
2022/03/11 07:42:27;;;;;;;1.30;1.30;;;;;;;6.96;45.28;101159.94;5140804;28;20103;-78
2022/03/11 07:44:58;;;;;;;1.70;1.60;;;;;;;7.01;45.07;101153.84;5135649;28;20458;-79
2022/03/11 07:47:28;;;;;;;0.50;0.50;;;;;;;6.90;44.98;101151.25;5136170;28;20068;-79
2022/03/11 07:49:59;;;;;;;1.92;1.83;;;;;;;7.03;44.91;101140.78;5136180;28;20092;-78
2022/03/11 07:52:29;;;;;;;2.53;2.03;;;;;;;7.21;44.00;101139.78;5136568;28;20033;-79
2022/03/11 07:55:00;;;;;;;1.20;1.20;;;;;;;7.27;43.87;101137.16;5123344;28;20042;-78
2022/03/11 07:57:36;;;;;;;1.45;1.00;;;;;;;7.21;44.25;101140.66;5136014;28;20030;-80
2022/03/11 08:00:24;;;;;;;1.50;1.40;;;;;;;7.17;44.34;101144.16;5140906;28;20093;-79
2022/03/11 08:02:55;;;;;;;2.03;1.67;;;;;;;7.36;43.74;101144.03;5143917;28;20048;-80
2022/03/11 08:05:26;;;;;;;1.73;1.63;;;;;;;7.33;44.47;101136.22;5150948;28;20610;-79
2022/03/11 08:07:56;;;;;;;0.63;0.63;;;;;;;7.08;44.87;101133.78;5138432;28;20597;-80
2022/03/11 08:10:33;;;;;;;1.70;1.60;;;;;;;7.13;44.90;101134.63;5152098;28;20050;-80
2022/03/11 08:13:07;;;;;;;2.33;2.15;;;;;;;7.21;44.12;101135.44;5121414;28;20030;-79
2022/03/11 08:15:38;;;;;;;0.93;0.93;;;;;;;7.47;44.17;101130.91;5136850;28;20033;-80
2022/03/11 08:18:08;;;;;;;1.05;1.05;;;;;;;7.37;44.50;101119.66;5139106;28;20671;-79
2022/03/11 08:20:39;;;;;;;1.80;1.70;;;;;;;7.46;44.04;101114.38;5138351;28;20161;-79
2022/03/11 08:23:11;;;;;;;2.67;2.42;;;;;;;7.27;44.64;101110.16;5147416;28;20049;-79
2022/03/11 08:25:45;;;;;;;1.38;1.30;;;;;;;7.31;44.70;101101.47;5136626;28;20057;-79
2022/03/11 08:28:16;;;;;;;1.00;1.00;;;;;;;7.34;44.08;101104.03;5130670;28;20027;-79
2022/03/11 08:30:47;;;;;;;1.85;1.75;;;;;;;7.48;44.25;101107.38;5139273;28;20050;-79
2022/03/11 08:33:22;;;;;;;2.60;2.40;;;;;;;7.70;43.71;101095.00;5138452;28;20044;-79
2022/03/11 08:35:57;;;;;;;1.63;1.52;;;;;;;7.66;43.86;101089.81;5122772;28;20053;-79
2022/03/11 08:38:48;;;;;;;3.10;2.80;;;;;;;7.43;44.01;101090.91;5133606;28;20034;-80
2022/03/11 08:41:22;;;;;;;1.67;1.58;;;;;;;7.34;44.41;101083.13;5130654;28;20671;-79
2022/03/11 08:43:53;;;;;;;2.75;2.33;;;;;;;7.66;43.87;101079.38;5144738;28;20061;-77
2022/03/11 08:46:24;;;;;;;2.05;1.95;;;;;;;7.40;44.26;101072.63;5090174;28;20042;-78
2022/03/11 08:49:00;;;;;;;0.60;0.60;;;;;;;7.63;43.75;101069.84;5105237;28;20069;-77
2022/03/11 08:51:45;;;;;;;1.92;1.83;;;;;;;7.38;44.21;101067.44;5147733;28;20073;-77
2022/03/11 08:54:18;;;;;;;1.10;1.08;;;;;;;7.77;43.63;101067.09;5122281;28;20037;-79
2022/03/11 08:56:54;;;;;;;3.22;1.40;;;;;;;7.48;43.88;101085.66;5114802;28;20035;-77
2022/03/11 08:59:26;;;;;;;2.72;2.63;;;;;;;7.65;43.57;101081.16;5126322;28;20030;-78
2022/03/11 09:01:56;;;;;;;4.03;2.00;;;;;;;7.73;43.53;101075.81;5124564;28;20046;-77
2022/03/11 09:04:29;;;;;;;2.30;2.17;;;;;;;7.90;43.16;101077.41;5120012;28;20026;-80
2022/03/11 09:07:23;;;;;;;4.95;2.03;;;;;;;7.80;43.63;101077.53;5117694;28;20041;-78
2022/03/11 09:09:59;;;;;;;0.73;0.73;;;;;;;7.96;43.41;101077.38;5116349;28;20125;-78
2022/03/11 09:12:29;;;;;;;2.20;1.98;;;;;;;7.67;43.94;101073.28;5115911;28;20059;-79
2022/03/11 09:15:00;;;;;;;3.20;2.63;;;;;;;7.88;43.48;101078.31;5107166;28;20446;-78
2022/03/11 09:17:30;;;;;;;0.60;0.60;;;;;;;7.74;43.90;101081.94;5128019;28;20073;-79
2022/03/11 09:20:09;;;;;;;1.95;1.85;;;;;;;7.88;43.57;101075.72;5101033;28;20081;-82
2022/03/11 09:23:22;;;;;;;1.85;1.75;;;;;;;7.83;43.22;101071.41;5153677;28;20086;-80
2022/03/11 09:26:13;;;;;;;2.10;2.00;;;;;;;8.01;43.10;101073.84;5146163;28;20041;-78
2022/03/11 09:29:33;;;;;;;;;;;;;;;;;;;;;
2022/03/11 09:32:21;;;;;;;1.35;1.25;;;;;;;8.21;43.35;101069.25;5152419;28;20058;-79
2022/03/11 09:34:52;;;;;;;2.45;2.28;;;;;;;8.27;43.08;101074.41;5134301;28;20037;-81
2022/03/11 09:37:23;;;;;;;1.30;1.20;;;;;;;8.28;43.02;101073.53;5164678;28;20038;-79
2022/03/11 09:40:42;;;;;;;1.75;1.65;;;;;;;8.20;43.49;101068.38;5132731;28;20033;-79
2022/03/11 09:43:52;;;;;;;2.42;1.85;;;;;;;8.28;43.12;101061.31;5138121;28;20043;-80
2022/03/11 09:46:53;;;;;;;1.75;1.65;;;;;;;8.29;42.99;101056.97;5113989;28;20474;-79
2022/03/11 09:49:24;;;;;;;1.67;1.58;;;;;;;8.52;42.92;101055.81;5142527;28;20042;-80
2022/03/11 09:51:55;;;;;;;3.47;2.50;;;;;;;8.60;43.07;101051.34;5122497;28;20030;-80
2022/03/11 09:55:24;;;;;;;1.95;1.85;;;;;;;8.60;42.51;101043.50;5140549;28;20068;-79
2022/03/11 09:58:03;;;;;;;2.85;2.53;;;;;;;8.59;42.41;101052.25;5145478;28;20046;-80
2022/03/11 10:00:35;;;;;;;3.70;1.88;;;;;;;8.74;42.42;101041.56;5113113;28;20026;-79
2022/03/11 10:03:10;;;;;;;0.90;0.90;;;;;;;8.68;42.21;101041.66;5134931;28;20049;-79
2022/03/11 10:05:49;;;;;;;3.30;2.05;;;;;;;8.62;42.14;101036.53;5113602;28;20042;-79
2022/03/11 10:08:39;;;;;;;1.38;1.35;;;;;;;8.78;42.02;101045.88;5141745;28;20529;-79
2022/03/11 10:11:35;;;;;;;1.38;1.33;;;;;;;8.88;41.66;101045.75;5153186;28;20084;-80
2022/03/11 10:14:09;;;;;;;1.85;1.58;;;;;;;8.99;41.83;101030.72;5138630;28;20026;-81
2022/03/11 10:16:45;;;;;;;2.55;2.35;;;;;;;8.90;42.18;101036.97;5129174;28;20080;-80
2022/03/11 10:19:18;;;;;;;1.25;1.25;;;;;;;9.01;41.91;101031.56;5150076;28;20081;-80
2022/03/11 10:21:51;;;;;;;1.10;1.10;;;;;;;8.96;41.59;101030.78;5116658;28;20090;-80
2022/03/11 10:24:22;;;;;;;1.38;1.27;;;;;;;9.04;42.14;101036.78;5127135;28;20037;-81
2022/03/11 10:26:58;;;;;;;1.05;1.05;;;;;;;9.07;41.48;101034.09;5113036;28;20433;-80
2022/03/11 10:29:36;;;;;;;2.63;1.38;;;;;;;9.12;41.50;101020.94;5137694;28;20026;-81
2022/03/11 10:32:08;;;;;;;4.45;3.08;;;;;;;9.16;41.36;101021.75;5168919;28;20042;-80
2022/03/11 10:34:38;;;;;;;3.10;2.80;;;;;;;9.16;41.29;101019.13;5145850;28;20112;-83
2022/03/11 10:37:12;;;;;;;4.15;2.08;;;;;;;9.23;40.98;101023.38;5123070;28;20677;-79
2022/03/11 10:39:45;;;;;;;2.25;2.00;;;;;;;9.31;41.27;101026.72;5155152;28;20038;-79
2022/03/11 10:42:19;;;;;;;4.38;3.65;;;;;;;9.35;41.24;101017.94;5128870;28;20068;-80
2022/03/11 10:44:58;;;;;;;1.92;1.83;;;;;;;9.54;40.93;101018.47;5134612;28;20452;-80
2022/03/11 10:47:34;;;;;;;1.27;1.17;;;;;;;9.45;40.38;101019.50;5142516;28;20792;-80
2022/03/11 10:50:12;;;;;;;1.50;1.40;;;;;;;9.53;40.89;101021.13;5137191;28;20051;-80
2022/03/11 10:52:50;;;;;;;1.33;1.33;;;;;;;9.56;40.71;101019.31;5135267;28;20050;-79
2022/03/11 10:55:28;;;;;;;1.88;1.65;;;;;;;9.73;41.22;101018.13;5127562;28;20122;-79
2022/03/11 10:58:06;;;;;;;6.32;2.25;;;;;;;9.66;40.85;101006.91;5127932;28;20031;-80
2022/03/11 11:00:39;;;;;;;1.60;1.50;;;;;;;9.69;40.52;101017.34;5124348;28;20034;-79
2022/03/11 11:03:11;;;;;;;5.97;2.05;;;;;;;9.74;41.11;101018.09;5141268;28;20096;-82
2022/03/11 11:05:44;;;;;;;1.58;1.48;;;;;;;9.85;40.57;101009.19;5134977;28;20042;-82
2022/03/11 11:08:18;;;;;;;2.38;2.17;;;;;;;9.91;40.64;101003.81;5106822;28;20030;-82
2022/03/11 11:10:49;;;;;;;1.55;1.48;;;;;;;9.99;40.90;101001.03;5112033;28;20054;-81
2022/03/11 11:13:20;;;;;;;1.95;1.88;;;;;;;10.03;40.97;101003.56;5110121;28;20050;-82
2022/03/11 11:15:54;;;;;;;1.98;1.50;;;;;;;10.09;39.52;100989.44;5122935;28;20125;-81
2022/03/11 11:18:29;;;;;;;2.80;2.13;;;;;;;10.23;40.43;100981.31;5124752;28;20092;-80
2022/03/11 11:21:05;;;;;;;2.90;2.55;;;;;;;10.35;39.80;100986.28;5152400;28;20041;-81
2022/03/11 11:23:38;;;;;;;4.35;2.25;;;;;;;10.22;39.00;100982.19;5160250;28;20095;-81
2022/03/11 11:26:12;;;;;;;6.88;3.55;;;;;;;10.30;39.47;100980.28;5147861;28;20056;-80
2022/03/11 11:28:43;;;;;;;2.60;2.40;;;;;;;10.38;40.53;100977.53;5145034;28;20018;-81
2022/03/11 11:31:23;;;;;;;2.55;2.38;;;;;;;10.49;39.25;100966.78;5131519;28;20069;-82
2022/03/11 11:33:54;;;;;;;1.60;1.50;;;;;;;10.53;39.06;100969.31;5136969;28;20084;-84
2022/03/11 11:36:43;;;;;;;1.15;1.15;;;;;;;10.59;39.24;100949.94;5128547;28;20046;-83
2022/03/11 11:44:09;;;;;;;3.10;2.53;;;;;;;10.80;38.91;100930.19;5154904;28;20081;-84
2022/03/11 11:51:01;;;;;;;;;;;;;;;;;;;;;
2022/03/11 11:54:11;;;;;;;2.03;1.83;;;;;;;11.07;37.59;100912.03;5091708;28;20050;-81
2022/03/11 11:57:05;;;;;;;1.58;1.48;;;;;;;11.17;38.11;100908.22;5106538;28;20042;-82
2022/03/11 12:00:16;;;;;;;1.90;1.60;;;;;;;11.20;38.20;100906.44;5125597;28;20029;-83
2022/03/11 12:03:12;;;;;;;2.42;2.25;;;;;;;11.37;38.54;100903.34;5148426;28;20596;-83
2022/03/11 12:12:43;;;;;;;2.63;2.42;;;;;;;11.57;37.76;100873.91;5115458;28;20057;-81
2022/03/11 12:30:20;;;;;;;0.95;0.95;;;;;;;12.12;37.09;100861.75;5113950;28;20048;-80
2022/03/11 12:44:10;;;;;;;4.32;1.20;;;;;;;12.45;36.99;100839.66;5080533;29;20043;-81
2022/03/11 12:47:29;;;;;;;1.60;1.50;;;;;;;12.71;36.24;100841.44;5066009;28;20037;-81
2022/03/11 12:50:46;;;;;;;3.38;1.83;;;;;;;12.77;35.66;100829.81;5093173;28;21090;-81
2022/03/11 12:53:23;;;;;;;4.72;2.63;;;;;;;12.94;35.74;100823.09;5115560;28;20065;-81
2022/03/11 12:57:09;;;;;;;1.30;1.20;;;;;;;12.86;35.09;100826.00;5158739;28;20064;-81
2022/03/11 13:17:46;;;;;;;1.35;1.27;;;;;;;13.29;34.51;100778.81;5174766;28;20060;-79
2022/03/11 13:20:40;;;;;;;1.75;1.67;;;;;;;13.33;33.48;100772.50;5151390;28;20068;-79
2022/03/11 13:23:40;;;;;;;3.28;2.35;;;;;;;13.39;34.38;100777.56;5155976;28;20057;-79
2022/03/11 13:26:22;;;;;;;4.57;1.42;;;;;;;13.57;33.32;100775.16;5154029;28;20042;-79
2022/03/11 13:29:07;;;;;;;2.08;1.98;;;;;;;13.75;33.49;100766.53;5165238;28;20656;-80
2022/03/11 13:31:40;;;;;;;2.80;2.20;;;;;;;13.69;32.66;100764.13;5174052;28;20556;-79